Terminal Aerodrome Forecast
Issued by NWS

Home | Current Version | Previous Version | Text Only | Print | Product List | Glossary On
Versions: 1 2 3 4 5 6 7 8 9 10 11 12 13 14 15 16 17 18 19 20
822
FTUS43 KOAX 220429 AAC
TAFBFF
TAF AMD
KBFF 220429Z 2204/2224 13008KT P6SM SCT030
     FM220900 11007KT 2SM BR BKN015
     FM221600 13008KT P6SM SCT025
     FM221800 16007KT P6SM SKC=

USA.gov is the U.S. government's official web portal to all federal, state and local government web resources and services.